createdAt,value
2023-02-23T00:01:53.163Z,101337.66
2023-02-23T00:04:19.621Z,101330.94
2023-02-23T00:06:46.185Z,101338.28
2023-02-23T00:09:22.906Z,101336.06
2023-02-23T00:11:51.629Z,101327.78
2023-02-23T00:14:18.131Z,101335.88
2023-02-23T00:16:45.495Z,101333.97
2023-02-23T00:19:13.978Z,101330.47
2023-02-23T00:21:41.621Z,101326.84
2023-02-23T00:24:11.178Z,101330.94
2023-02-23T00:26:39.757Z,101328.91
2023-02-23T00:29:11.071Z,101325.06
2023-02-23T00:31:38.738Z,101325.88
2023-02-23T00:34:06.053Z,101323.16
2023-02-23T00:36:34.589Z,101326.50
2023-02-23T00:39:12.118Z,101318.41
2023-02-23T00:41:38.587Z,101328.91
2023-02-23T00:44:05.100Z,101328.75
2023-02-23T00:46:31.632Z,101329.69
2023-02-23T00:48:59.318Z,101325.06
2023-02-23T00:51:31.008Z,101327.44
2023-02-23T00:53:59.557Z,101327.13
2023-02-23T00:56:26.965Z,101326.66
2023-02-23T00:58:54.821Z,101321.88
2023-02-23T01:01:22.086Z,101318.22
2023-02-23T01:03:49.048Z,101333.81
2023-02-23T01:06:17.336Z,101326.03
2023-02-23T01:08:46.256Z,101327.63
2023-02-23T01:11:24.440Z,101328.56
2023-02-23T01:13:53.907Z,101327.13
2023-02-23T01:16:23.010Z,101331.44
2023-02-23T01:18:49.544Z,101332.25
2023-02-23T01:21:20.883Z,101325.72
2023-02-23T01:23:47.719Z,101336.84
2023-02-23T01:26:21.739Z,101335.25
2023-02-23T01:28:53.882Z,101330.94
2023-02-23T01:31:22.032Z,101331.75
2023-02-23T01:33:53.444Z,101338.91
2023-02-23T01:36:20.081Z,101333.19
2023-02-23T01:38:46.558Z,101341.75
2023-02-23T01:41:13.013Z,101339.06
2023-02-23T01:44:00.112Z,101343.06
2023-02-23T01:46:27.530Z,101337.16
2023-02-23T01:48:56.451Z,101338.44
2023-02-23T01:51:27.911Z,101333.97
2023-02-23T01:54:17.317Z,101333.19
2023-02-23T01:56:57.911Z,101338.91
2023-02-23T01:59:30.086Z,101339.25
2023-02-23T02:01:56.940Z,101334.44
2023-02-23T02:04:25.301Z,101334.63
2023-02-23T02:06:53.888Z,101338.59
2023-02-23T02:09:25.664Z,101339.84
2023-02-23T02:11:54.233Z,101337.78
2023-02-23T02:14:27.094Z,101336.84
2023-02-23T02:17:22.282Z,101339.69
2023-02-23T02:19:54.723Z,101340.50
2023-02-23T02:22:36.381Z,101345.91
2023-02-23T02:25:02.822Z,101335.41
2023-02-23T02:27:53.883Z,101335.75
2023-02-23T02:30:48.604Z,101342.09
2023-02-23T02:33:52.309Z,101345.56
2023-02-23T02:36:57.390Z,101342.09
2023-02-23T02:39:46.711Z,101344.31
2023-02-23T02:42:27.074Z,101343.34
2023-02-23T02:45:16.672Z,101334.94
2023-02-23T02:47:50.425Z,101333.50
2023-02-23T02:50:40.372Z,101337.94
2023-02-23T02:53:11.862Z,101339.38
2023-02-23T02:55:43.672Z,101333.66
2023-02-23T02:58:12.888Z,101334.78
2023-02-23T03:01:05.603Z,101329.22
2023-02-23T03:03:55.038Z,101330.94
2023-02-23T03:06:54.593Z,101335.09
2023-02-23T03:09:53.728Z,101335.41
2023-02-23T03:12:45.596Z,101342.09
2023-02-23T03:15:47.020Z,101336.34
2023-02-23T03:18:55.107Z,101345.13
2023-02-23T03:22:00.010Z,101341.94
2023-02-23T03:25:00.140Z,101337.94
2023-02-23T03:27:54.066Z,101350.66
2023-02-23T03:30:47.628Z,101346.56
2023-02-23T03:33:46.365Z,101347.81
2023-02-23T03:36:37.634Z,101346.56
2023-02-23T03:39:43.217Z,101340.81
2023-02-23T03:42:34.116Z,101347.16
2023-02-23T03:45:25.676Z,101347.97
2023-02-23T03:48:13.956Z,101348.47
2023-02-23T03:51:07.327Z,101348.47
2023-02-23T03:54:14.983Z,101353.38
2023-02-23T03:57:05.258Z,101355.78
2023-02-23T03:59:58.704Z,101354.66
2023-02-23T04:02:44.959Z,101356.25
2023-02-23T04:05:35.812Z,101353.22
2023-02-23T04:08:24.584Z,101368.34
2023-02-23T04:11:17.605Z,101359.91
2023-02-23T04:13:48.854Z,101370.09
2023-02-23T04:16:15.676Z,101362.47
2023-02-23T04:18:42.630Z,101371.84
2023-02-23T04:21:09.150Z,101366.41
2023-02-23T04:23:40.496Z,101378.69
2023-02-23T04:26:06.956Z,101374.06
2023-02-23T04:28:33.786Z,101370.09
2023-02-23T04:31:00.723Z,101375.81
2023-02-23T04:33:27.287Z,101377.41
2023-02-23T04:35:54.172Z,101372.94
2023-02-23T04:38:21.481Z,101379.00
2023-02-23T04:40:49.744Z,101378.50
2023-02-23T04:43:16.245Z,101375.50
2023-02-23T04:45:43.897Z,101385.34
2023-02-23T04:48:10.490Z,101379.59
2023-02-23T04:50:37.274Z,101377.69
2023-02-23T04:53:03.895Z,101378.81
2023-02-23T04:55:30.363Z,101376.09
2023-02-23T04:57:59.257Z,101384.06
2023-02-23T05:00:26.704Z,101379.00
2023-02-23T05:02:53.220Z,101389.00
2023-02-23T05:05:19.714Z,101384.41
2023-02-23T05:07:46.257Z,101386.78
2023-02-23T05:10:12.745Z,101392.00
2023-02-23T05:12:39.169Z,101388.53
2023-02-23T05:15:06.371Z,101396.63
2023-02-23T05:17:32.832Z,101398.72
2023-02-23T05:19:59.352Z,101392.19
2023-02-23T05:22:25.888Z,101394.56
2023-02-23T05:24:52.339Z,101389.81
2023-02-23T05:27:18.900Z,101397.44
2023-02-23T05:29:45.424Z,101400.25
2023-02-23T05:32:11.966Z,101407.09
2023-02-23T05:34:39.179Z,101407.38
2023-02-23T05:37:06.136Z,101401.69
2023-02-23T05:39:32.649Z,101406.78
2023-02-23T05:41:59.245Z,101404.53
2023-02-23T05:44:25.799Z,101406.75
2023-02-23T05:46:52.920Z,101406.91
2023-02-23T05:49:19.396Z,101402.31
2023-02-23T05:51:45.856Z,101404.19
2023-02-23T05:54:13.429Z,101403.59
2023-02-23T05:56:41.008Z,101409.13
2023-02-23T05:59:07.540Z,101412.28
2023-02-23T06:01:34.037Z,101417.09
2023-02-23T06:04:00.682Z,101422.50
2023-02-23T06:06:28.400Z,101415.66
2023-02-23T06:08:55.010Z,101415.66
2023-02-23T06:11:21.931Z,101414.53
2023-02-23T06:13:49.656Z,101423.28
2023-02-23T06:16:16.552Z,101422.94
2023-02-23T06:18:43.153Z,101418.81
2023-02-23T06:21:09.682Z,101427.72
2023-02-23T06:23:36.246Z,101437.09
2023-02-23T06:26:02.791Z,101435.22
2023-02-23T06:28:29.920Z,101441.69
2023-02-23T06:30:57.051Z,101439.50
2023-02-23T06:33:23.858Z,101435.03
2023-02-23T06:35:50.383Z,101443.13
2023-02-23T06:38:17.177Z,101448.53
2023-02-23T06:40:43.747Z,101441.88
2023-02-23T06:43:10.822Z,101446.81
2023-02-23T06:45:37.372Z,101454.41
2023-02-23T06:48:04.498Z,101462.84
2023-02-23T06:50:31.140Z,101453.94
2023-02-23T06:52:57.697Z,101460.16
2023-02-23T06:55:24.551Z,101453.47
2023-02-23T06:57:54.440Z,101462.69
2023-02-23T07:00:21.532Z,101459.97
2023-02-23T07:02:48.043Z,101466.19
2023-02-23T07:05:14.624Z,101470.00
2023-02-23T07:07:41.128Z,101468.88
2023-02-23T07:10:08.065Z,101479.38
2023-02-23T07:12:34.639Z,101470.63
2023-02-23T07:15:01.072Z,101471.94
2023-02-23T07:17:27.589Z,101478.94
2023-02-23T07:19:54.633Z,101476.03
2023-02-23T07:22:22.272Z,101479.53
2023-02-23T07:24:48.768Z,101492.09
2023-02-23T07:27:15.243Z,101483.66
2023-02-23T07:29:41.703Z,101494.34
2023-02-23T07:32:08.357Z,101493.56
2023-02-23T07:34:34.990Z,101497.84
2023-02-23T07:37:01.530Z,101499.75
2023-02-23T07:39:27.987Z,101502.13
2023-02-23T07:41:54.516Z,101506.91
2023-02-23T07:44:21.065Z,101511.59
2023-02-23T07:46:47.599Z,101511.25
2023-02-23T07:49:14.161Z,101521.47
2023-02-23T07:51:41.329Z,101526.69
2023-02-23T07:54:07.994Z,101531.47
2023-02-23T07:56:35.230Z,101532.59
2023-02-23T07:59:02.556Z,101533.41
2023-02-23T08:01:29.258Z,101528.66
2023-02-23T08:03:55.821Z,101538.34
2023-02-23T08:06:22.374Z,101536.63
2023-02-23T08:08:49.144Z,101543.00
2023-02-23T08:11:15.831Z,101538.06
2023-02-23T08:13:42.720Z,101549.97
2023-02-23T08:16:09.395Z,101552.50
2023-02-23T08:18:35.992Z,101547.59
2023-02-23T08:21:04.309Z,101553.19
2023-02-23T08:23:34.697Z,101549.84
2023-02-23T08:26:02.277Z,101549.69
2023-02-23T08:28:29.682Z,101558.06
2023-02-23T08:30:56.348Z,101553.19
2023-02-23T08:33:23.327Z,101559.50
2023-02-23T08:35:49.854Z,101564.28
2023-02-23T08:38:18.318Z,101559.06
2023-02-23T08:40:45.209Z,101567.69
2023-02-23T08:43:11.717Z,101561.97
2023-02-23T08:45:39.588Z,101568.19
2023-02-23T08:48:07.636Z,101569.16
2023-02-23T08:50:34.320Z,101578.84
2023-02-23T08:53:00.765Z,101576.91
2023-02-23T08:55:27.467Z,101584.22
2023-02-23T08:57:53.977Z,101582.31
2023-02-23T09:00:21.053Z,101589.31
2023-02-23T09:02:48.214Z,101583.09
2023-02-23T09:05:15.079Z,101591.88
2023-02-23T09:07:45.302Z,101594.75
2023-02-23T09:10:14.916Z,101592.03
2023-02-23T09:12:41.381Z,101591.69
2023-02-23T09:15:08.582Z,101593.44
2023-02-23T09:17:35.213Z,101603.78
2023-02-23T09:20:02.145Z,101601.88
2023-02-23T09:22:28.688Z,101598.09
2023-02-23T09:24:55.161Z,101599.19
2023-02-23T09:27:21.756Z,101600.59
2023-02-23T09:29:48.301Z,101598.69
2023-02-23T09:32:14.964Z,101604.13
2023-02-23T09:34:41.453Z,101610.22
2023-02-23T09:37:08.654Z,101607.19
2023-02-23T09:39:38.537Z,101612.78
2023-02-23T09:42:14.111Z,101616.13
2023-02-23T09:45:18.420Z,101622.03
2023-02-23T09:48:05.212Z,101612.78
2023-02-23T09:50:34.881Z,101623.16
2023-02-23T09:53:07.054Z,101625.53
2023-02-23T09:55:33.856Z,101626.66
2023-02-23T09:58:08.686Z,101620.28
2023-02-23T10:00:44.460Z,101623.81
2023-02-23T10:03:18.890Z,101628.09
2023-02-23T10:06:08.444Z,101616.47
2023-02-23T10:08:48.718Z,101632.25
2023-02-23T10:11:21.046Z,101627.78
2023-02-23T10:14:18.747Z,101626.69
2023-02-23T10:17:14.761Z,101629.25
2023-02-23T10:20:00.608Z,101622.25
2023-02-23T10:22:28.792Z,101627.34
2023-02-23T10:25:20.288Z,101634.66
2023-02-23T10:27:48.952Z,101631.78
2023-02-23T10:30:22.870Z,101630.34
2023-02-23T10:32:55.276Z,101634.78
2023-02-23T10:35:24.323Z,101640.06
2023-02-23T10:37:52.800Z,101643.56
2023-02-23T10:40:25.477Z,101645.50
2023-02-23T10:42:53.102Z,101638.94
2023-02-23T10:45:23.295Z,101643.91
2023-02-23T10:48:00.488Z,101646.44
2023-02-23T10:50:28.971Z,101640.53
2023-02-23T10:53:00.719Z,101646.63
2023-02-23T10:55:30.327Z,101649.78
2023-02-23T10:58:16.703Z,101650.91
2023-02-23T11:01:35.300Z,101650.72
2023-02-23T11:04:22.252Z,101654.25
2023-02-23T11:06:49.558Z,101659.19
2023-02-23T11:09:45.035Z,101653.44
2023-02-23T11:12:36.765Z,101657.44
2023-02-23T11:15:39.395Z,101657.59
2023-02-23T11:18:21.525Z,101646.13
2023-02-23T11:20:48.446Z,101638.34
2023-02-23T11:23:34.047Z,101641.69
2023-02-23T11:26:03.197Z,101641.22
2023-02-23T11:28:36.892Z,101640.44
2023-02-23T11:31:29.811Z,101647.13
2023-02-23T11:33:57.484Z,101647.72
2023-02-23T11:36:23.857Z,101652.06
2023-02-23T11:39:02.841Z,101657.28
2023-02-23T11:41:32.753Z,101663.03
2023-02-23T11:44:02.846Z,101662.09
2023-02-23T11:46:32.788Z,101657.94
2023-02-23T11:49:07.634Z,101661.44
2023-02-23T11:51:40.850Z,101659.19
2023-02-23T11:54:35.922Z,101655.88
2023-02-23T11:57:02.742Z,101647.75
2023-02-23T11:59:41.181Z,101651.56
2023-02-23T12:02:17.961Z,101646.31
2023-02-23T12:04:47.715Z,101643.44
2023-02-23T12:07:26.159Z,101646.00
2023-02-23T12:10:23.428Z,101635.81
2023-02-23T12:13:00.590Z,101641.22
2023-02-23T12:15:50.015Z,101645.19
2023-02-23T12:18:33.213Z,101643.94
2023-02-23T12:21:13.436Z,101648.06
2023-02-23T12:23:43.946Z,101641.03
2023-02-23T12:26:18.846Z,101654.91
2023-02-23T12:29:06.314Z,101653.16
2023-02-23T12:31:47.663Z,101645.31
2023-02-23T12:34:25.313Z,101650.09
2023-02-23T12:37:07.630Z,101652.31
2023-02-23T12:39:41.602Z,101653.38
2023-02-23T12:42:35.945Z,101652.00
2023-02-23T12:45:07.573Z,101651.50
2023-02-23T12:47:36.271Z,101652.34
2023-02-23T12:50:26.359Z,101654.72
2023-02-23T12:52:59.623Z,101650.25
2023-02-23T12:55:41.914Z,101661.25
2023-02-23T12:58:24.352Z,101661.88
2023-02-23T13:00:58.190Z,101664.91
2023-02-23T13:03:55.173Z,101652.34
2023-02-23T13:06:48.198Z,101652.34
2023-02-23T13:09:14.873Z,101656.47
2023-02-23T13:12:06.839Z,101648.53
2023-02-23T13:15:04.025Z,101646.63
2023-02-23T13:17:33.418Z,101648.84
2023-02-23T13:20:10.236Z,101643.13
2023-02-23T13:22:46.420Z,101636.44
2023-02-23T13:25:36.940Z,101636.91
2023-02-23T13:28:06.218Z,101635.13
2023-02-23T13:30:33.173Z,101635.94
2023-02-23T13:33:06.306Z,101627.34
2023-02-23T13:35:39.082Z,101625.25
2023-02-23T13:38:30.137Z,101628.47
2023-02-23T13:41:35.239Z,101632.09
2023-02-23T13:44:16.419Z,101633.69
2023-02-23T13:47:03.727Z,101631.47
2023-02-23T13:49:40.043Z,101636.59
2023-02-23T13:52:29.890Z,101638.50
2023-02-23T13:55:03.705Z,101636.09
2023-02-23T13:57:32.002Z,101638.66
2023-02-23T13:59:59.789Z,101638.00
2023-02-23T14:02:43.502Z,101643.94
2023-02-23T14:05:18.894Z,101642.81
2023-02-23T14:07:48.791Z,101650.13
2023-02-23T14:10:27.731Z,101657.16
2023-02-23T14:13:13.881Z,101658.59
2023-02-23T14:16:08.280Z,101658.28
2023-02-23T14:18:35.312Z,101660.34
2023-02-23T14:21:28.877Z,101661.44
2023-02-23T14:24:17.740Z,101660.47
2023-02-23T14:27:07.325Z,101663.03
2023-02-23T14:29:45.687Z,101664.31
2023-02-23T14:32:15.386Z,101665.75
2023-02-23T14:34:59.867Z,101658.88
2023-02-23T14:37:32.480Z,101660.81
2023-02-23T14:40:30.154Z,101657.94
2023-02-23T14:43:00.655Z,101662.25
2023-02-23T14:45:31.039Z,101661.28
2023-02-23T14:48:02.799Z,101665.09
2023-02-23T14:50:32.379Z,101652.06
2023-02-23T14:53:01.363Z,101656.03
2023-02-23T14:55:30.054Z,101653.00
2023-02-23T14:57:58.058Z,101648.22
2023-02-23T15:00:27.601Z,101650.94
2023-02-23T15:02:56.233Z,101656.34
2023-02-23T15:05:26.053Z,101655.84
2023-02-23T15:07:54.486Z,101652.34
2023-02-23T15:10:37.049Z,101646.00
2023-02-23T15:13:16.318Z,101647.44
2023-02-23T15:15:45.690Z,101653.97
2023-02-23T15:18:22.407Z,101652.53
2023-02-23T15:20:49.513Z,101653.16
2023-02-23T15:23:19.616Z,101652.84
2023-02-23T15:25:50.924Z,101656.69
2023-02-23T15:28:25.301Z,101663.50
2023-02-23T15:30:55.290Z,101664.94
2023-02-23T15:33:28.971Z,101663.50
2023-02-23T15:36:19.036Z,101664.31
2023-02-23T15:38:55.104Z,101664.63
2023-02-23T15:41:37.045Z,101650.75
2023-02-23T15:44:16.198Z,101650.94
2023-02-23T15:46:45.681Z,101661.59
2023-02-23T15:49:19.378Z,101661.78
2023-02-23T15:51:50.050Z,101672.94
2023-02-23T15:54:24.289Z,101679.59
2023-02-23T15:56:57.227Z,101680.25
2023-02-23T15:59:30.876Z,101676.41
2023-02-23T16:01:59.934Z,101683.72
2023-02-23T16:04:32.567Z,101679.72
2023-02-23T16:07:18.203Z,101695.03
2023-02-23T16:10:18.098Z,101689.25
2023-02-23T16:12:48.914Z,101695.75
2023-02-23T16:15:27.446Z,101695.59
2023-02-23T16:17:57.822Z,101699.59
2023-02-23T16:20:41.343Z,101711.63
2023-02-23T16:23:17.759Z,101707.72
2023-02-23T16:25:46.364Z,101701.50
2023-02-23T16:28:17.395Z,101699.88
2023-02-23T16:30:57.184Z,101705.91
2023-02-23T16:33:29.279Z,101708.91
2023-02-23T16:36:08.146Z,101705.94
2023-02-23T16:38:49.164Z,101705.94
2023-02-23T16:41:22.064Z,101719.16
2023-02-23T16:43:50.695Z,101708.47
2023-02-23T16:46:18.291Z,101710.81
2023-02-23T16:48:44.956Z,101721.31
2023-02-23T16:51:16.502Z,101727.31
2023-02-23T16:53:44.121Z,101721.91
2023-02-23T16:56:14.835Z,101724.44
2023-02-23T16:58:46.963Z,101719.16
2023-02-23T17:01:14.447Z,101727.41
2023-02-23T17:03:52.440Z,101719.47
2023-02-23T17:06:20.777Z,101723.34
2023-02-23T17:08:57.199Z,101730.53
2023-02-23T17:11:24.354Z,101728.13
2023-02-23T17:13:50.839Z,101730.44
2023-02-23T17:16:17.923Z,101724.25
2023-02-23T17:18:44.931Z,101730.44
2023-02-23T17:21:14.337Z,101737.66
2023-02-23T17:23:51.177Z,101743.34
2023-02-23T17:26:23.489Z,101748.25
2023-02-23T17:28:51.354Z,101747.84
2023-02-23T17:31:19.643Z,101748.25
2023-02-23T17:33:47.704Z,101750.78
2023-02-23T17:36:16.375Z,101749.34
2023-02-23T17:38:44.754Z,101757.66
2023-02-23T17:41:20.692Z,101746.91
2023-02-23T17:43:47.665Z,101754.00
2023-02-23T17:46:14.614Z,101744.97
2023-02-23T17:48:44.688Z,101760.19
2023-02-23T17:51:13.060Z,101766.47
2023-02-23T17:53:40.361Z,101768.75
2023-02-23T17:56:07.624Z,101768.84
2023-02-23T17:58:34.586Z,101774.09
2023-02-23T18:01:03.579Z,101770.38
2023-02-23T18:03:33.192Z,101772.19
2023-02-23T18:06:05.156Z,101776.47
2023-02-23T18:08:31.756Z,101784.88
2023-02-23T18:10:58.921Z,101785.34
2023-02-23T18:13:27.763Z,101782.31
2023-02-23T18:15:58.738Z,101777.50
2023-02-23T18:18:25.314Z,101780.72
2023-02-23T18:20:54.332Z,101792.34
2023-02-23T18:23:22.183Z,101788.22
2023-02-23T18:25:49.354Z,101795.13
2023-02-23T18:28:16.526Z,101790.53
2023-02-23T18:30:44.755Z,101788.94
2023-02-23T18:33:12.813Z,101801.94
2023-02-23T18:35:42.880Z,101797.16
2023-02-23T18:38:11.653Z,101799.72
2023-02-23T18:40:38.886Z,101794.16
2023-02-23T18:43:05.976Z,101788.13
2023-02-23T18:45:33.209Z,101801.16
2023-02-23T18:48:00.065Z,101798.75
2023-02-23T18:50:26.621Z,101802.34
2023-02-23T18:52:55.629Z,101799.94
2023-02-23T18:55:22.905Z,101806.94
2023-02-23T18:57:50.917Z,101799.84
2023-02-23T19:00:18.477Z,101798.56
2023-02-23T19:02:48.449Z,101805.06
2023-02-23T19:05:17.311Z,101802.06
2023-02-23T19:07:44.416Z,101805.94
2023-02-23T19:10:14.756Z,101803.06
2023-02-23T19:12:41.399Z,101808.72
2023-02-23T19:15:08.920Z,101799.16
2023-02-23T19:17:36.223Z,101798.44
2023-02-23T19:20:05.082Z,101802.16
2023-02-23T19:22:31.514Z,101798.66
2023-02-23T19:24:57.998Z,101800.94
2023-02-23T19:27:24.428Z,101794.44
2023-02-23T19:29:51.073Z,101783.97
2023-02-23T19:32:18.108Z,101790.34
2023-02-23T19:34:46.536Z,101784.94
2023-02-23T19:37:13.365Z,101782.94
2023-02-23T19:39:39.933Z,101792.50
2023-02-23T19:42:07.217Z,101786.00
2023-02-23T19:44:34.058Z,101786.41
2023-02-23T19:47:00.710Z,101784.38
2023-02-23T19:49:27.243Z,101787.81
2023-02-23T19:51:53.942Z,101791.47
2023-02-23T19:54:20.753Z,101786.97
2023-02-23T19:56:49.871Z,101791.09
2023-02-23T19:59:16.447Z,101791.47
2023-02-23T20:01:45.031Z,101786.56
2023-02-23T20:04:11.697Z,101789.56
2023-02-23T20:06:47.238Z,101797.44
2023-02-23T20:09:14.548Z,101792.06
2023-02-23T20:11:42.483Z,101796.41
2023-02-23T20:14:09.810Z,101798.63
2023-02-23T20:16:36.778Z,101800.31
2023-02-23T20:19:05.535Z,101796.81
2023-02-23T20:21:32.607Z,101795.13
2023-02-23T20:24:01.526Z,101794.03
2023-02-23T20:26:31.224Z,101792.94
2023-02-23T20:28:58.554Z,101798.19
2023-02-23T20:31:28.411Z,101796.44
2023-02-23T20:33:56.424Z,101792.59
2023-02-23T20:36:24.336Z,101780.75
2023-02-23T20:38:51.523Z,101774.06
2023-02-23T20:41:19.055Z,101780.28
2023-02-23T20:43:46.018Z,101784.44
2023-02-23T20:46:15.485Z,101780.22
2023-02-23T20:48:42.592Z,101782.16
2023-02-23T20:51:12.900Z,101770.94
2023-02-23T20:53:40.142Z,101777.41
2023-02-23T20:56:08.836Z,101774.25
2023-02-23T20:58:35.999Z,101781.53
2023-02-23T21:01:06.962Z,101776.72
2023-02-23T21:03:34.537Z,101776.22
2023-02-23T21:06:01.320Z,101776.28
2023-02-23T21:08:28.861Z,101775.59
2023-02-23T21:10:55.618Z,101775.00
2023-02-23T21:13:23.149Z,101775.47
2023-02-23T21:16:00.757Z,101771.09
2023-02-23T21:18:28.171Z,101765.88
2023-02-23T21:20:56.759Z,101764.06
2023-02-23T21:23:24.582Z,101765.69
2023-02-23T21:25:53.151Z,101762.81
2023-02-23T21:28:20.810Z,101762.53
2023-02-23T21:30:47.369Z,101766.09
2023-02-23T21:33:13.928Z,101761.22
2023-02-23T21:35:40.450Z,101775.16
2023-02-23T21:38:08.331Z,101760.28
2023-02-23T21:40:35.606Z,101751.75
2023-02-23T21:43:06.529Z,101761.75
2023-02-23T21:45:33.124Z,101767.63
2023-02-23T21:47:59.584Z,101764.19
2023-02-23T21:50:26.205Z,101757.81
2023-02-23T21:52:56.027Z,101764.06
2023-02-23T21:55:22.831Z,101774.03
2023-02-23T21:57:50.663Z,101766.81
2023-02-23T22:00:18.995Z,101767.94
2023-02-23T22:02:47.037Z,101766.34
2023-02-23T22:05:15.421Z,101769.28
2023-02-23T22:07:47.701Z,101764.94
2023-02-23T22:10:14.250Z,101770.72
2023-02-23T22:12:40.731Z,101769.09
2023-02-23T22:15:08.193Z,101772.59
2023-02-23T22:17:36.109Z,101756.94
2023-02-23T22:20:05.403Z,101767.25
2023-02-23T22:22:36.057Z,101764.91
2023-02-23T22:25:04.419Z,101762.00
2023-02-23T22:27:31.213Z,101762.28
2023-02-23T22:29:59.626Z,101764.22
2023-02-23T22:32:27.188Z,101761.78
2023-02-23T22:34:53.992Z,101757.22
2023-02-23T22:37:21.941Z,101764.50
2023-02-23T22:39:48.682Z,101760.50
2023-02-23T22:42:15.456Z,101758.66
2023-02-23T22:44:41.895Z,101751.97
2023-02-23T22:47:08.536Z,101751.47
2023-02-23T22:49:35.094Z,101750.66
2023-02-23T22:52:01.563Z,101743.19
2023-02-23T22:54:28.052Z,101745.34
2023-02-23T22:56:54.892Z,101745.59
2023-02-23T22:59:21.448Z,101746.38
2023-02-23T23:01:50.112Z,101745.09
2023-02-23T23:04:17.182Z,101742.41
2023-02-23T23:06:43.855Z,101744.03
2023-02-23T23:09:11.964Z,101738.16
2023-02-23T23:11:41.764Z,101744.06
2023-02-23T23:14:10.428Z,101729.34
2023-02-23T23:16:50.126Z,101737.38
2023-02-23T23:19:23.699Z,101722.34
2023-02-23T23:21:55.465Z,101725.03
2023-02-23T23:24:24.086Z,101719.94
2023-02-23T23:26:55.476Z,101716.19
2023-02-23T23:29:25.735Z,101724.50
2023-02-23T23:31:53.523Z,101710.06
2023-02-23T23:34:23.010Z,101716.50
2023-02-23T23:36:50.066Z,101708.47
2023-02-23T23:39:18.169Z,101702.81
2023-02-23T23:41:48.423Z,101703.03
2023-02-23T23:44:20.933Z,101700.09
2023-02-23T23:46:50.598Z,101698.22
2023-02-23T23:49:20.428Z,101695.28
2023-02-23T23:51:51.706Z,101691.28
2023-02-23T23:54:30.889Z,101688.06
2023-02-23T23:57:01.268Z,101692.38
2023-02-23T23:59:28.288Z,101689.97
